sensor_id;sensor_type;location;lat;lon;timestamp;pressure;altitude;pressure_sealevel;temperature;humidity
75913;BME280;64592;52.168;21.040;2023-07-30T00:02:31;99469.28;;;19.56;99.13
75913;BME280;64592;52.168;21.040;2023-07-30T00:07:33;99467.59;;;19.55;98.45
75913;BME280;64592;52.168;21.040;2023-07-30T00:12:36;99475.50;;;19.50;99.42
75913;BME280;64592;52.168;21.040;2023-07-30T00:23:34;99474.56;;;19.43;100.00
75913;BME280;64592;52.168;21.040;2023-07-30T00:28:37;99481.06;;;19.42;100.00
75913;BME280;64592;52.168;21.040;2023-07-30T00:33:39;99488.16;;;19.36;100.00
75913;BME280;64592;52.168;21.040;2023-07-30T00:38:40;99485.75;;;19.26;100.00
75913;BME280;64592;52.168;21.040;2023-07-30T00:43:43;99492.63;;;19.22;100.00
75913;BME280;64592;52.168;21.040;2023-07-30T00:48:45;99488.97;;;19.15;100.00
75913;BME280;64592;52.168;21.040;2023-07-30T00:53:47;99495.88;;;19.11;100.00
75913;BME280;64592;52.168;21.040;2023-07-30T00:58:50;99491.16;;;19.05;100.00
75913;BME280;64592;52.168;21.040;2023-07-30T01:03:53;99496.84;;;19.04;100.00
75913;BME280;64592;52.168;21.040;2023-07-30T01:08:55;99484.03;;;19.04;100.00
75913;BME280;64592;52.168;21.040;2023-07-30T01:13:59;99503.53;;;19.01;100.00
75913;BME280;64592;52.168;21.040;2023-07-30T01:19:01;99495.31;;;19.01;100.00
75913;BME280;64592;52.168;21.040;2023-07-30T01:24:05;99507.09;;;19.02;100.00
75913;BME280;64592;52.168;21.040;2023-07-30T01:29:11;99510.78;;;18.94;100.00
75913;BME280;64592;52.168;21.040;2023-07-30T01:34:13;99509.09;;;18.93;100.00
75913;BME280;64592;52.168;21.040;2023-07-30T01:39:17;99513.69;;;18.92;100.00
75913;BME280;64592;52.168;21.040;2023-07-30T01:44:19;99511.16;;;18.91;100.00
75913;BME280;64592;52.168;21.040;2023-07-30T01:49:20;99510.31;;;18.90;100.00
75913;BME280;64592;52.168;21.040;2023-07-30T01:54:23;99519.94;;;18.86;100.00
75913;BME280;64592;52.168;21.040;2023-07-30T01:59:25;99513.63;;;18.86;100.00
75913;BME280;64592;52.168;21.040;2023-07-30T02:04:27;99515.69;;;18.84;100.00
75913;BME280;64592;52.168;21.040;2023-07-30T02:09:30;99523.25;;;18.82;100.00
75913;BME280;64592;52.168;21.040;2023-07-30T02:14:32;99527.75;;;18.75;100.00
75913;BME280;64592;52.168;21.040;2023-07-30T02:19:33;99526.06;;;18.74;100.00
75913;BME280;64592;52.168;21.040;2023-07-30T02:24:36;99533.22;;;18.75;100.00
75913;BME280;64592;52.168;21.040;2023-07-30T02:29:38;99540.00;;;18.64;100.00
75913;BME280;64592;52.168;21.040;2023-07-30T02:34:40;99535.47;;;18.56;100.00
75913;BME280;64592;52.168;21.040;2023-07-30T02:39:43;99548.41;;;18.54;100.00
75913;BME280;64592;52.168;21.040;2023-07-30T02:44:44;99545.03;;;18.52;100.00
75913;BME280;64592;52.168;21.040;2023-07-30T02:49:46;99540.91;;;18.56;100.00
75913;BME280;64592;52.168;21.040;2023-07-30T02:54:49;99536.00;;;18.52;100.00
75913;BME280;64592;52.168;21.040;2023-07-30T02:59:50;99544.31;;;18.58;100.00
75913;BME280;64592;52.168;21.040;2023-07-30T03:04:52;99543.97;;;18.53;100.00
75913;BME280;64592;52.168;21.040;2023-07-30T03:09:55;99539.19;;;18.55;100.00
75913;BME280;64592;52.168;21.040;2023-07-30T03:14:57;99540.41;;;18.53;100.00
75913;BME280;64592;52.168;21.040;2023-07-30T03:19:59;99555.97;;;18.52;100.00
75913;BME280;64592;52.168;21.040;2023-07-30T03:25:02;99559.22;;;18.48;100.00
75913;BME280;64592;52.168;21.040;2023-07-30T03:30:05;99552.16;;;18.53;100.00
75913;BME280;64592;52.168;21.040;2023-07-30T03:35:07;99558.16;;;18.57;100.00
75913;BME280;64592;52.168;21.040;2023-07-30T03:40:11;99557.59;;;18.61;100.00
75913;BME280;64592;52.168;21.040;2023-07-30T03:45:13;99555.88;;;18.60;100.00
75913;BME280;64592;52.168;21.040;2023-07-30T03:50:14;99573.59;;;18.65;100.00
75913;BME280;64592;52.168;21.040;2023-07-30T03:55:18;99569.16;;;18.64;100.00
75913;BME280;64592;52.168;21.040;2023-07-30T04:00:19;99567.09;;;18.66;100.00
75913;BME280;64592;52.168;21.040;2023-07-30T04:05:21;99568.81;;;18.67;100.00
75913;BME280;64592;52.168;21.040;2023-07-30T04:10:24;99586.69;;;18.69;100.00
75913;BME280;64592;52.168;21.040;2023-07-30T04:15:26;99583.09;;;18.69;100.00
75913;BME280;64592;52.168;21.040;2023-07-30T04:20:27;99593.00;;;18.70;100.00
75913;BME280;64592;52.168;21.040;2023-07-30T04:25:30;99589.91;;;18.73;100.00
75913;BME280;64592;52.168;21.040;2023-07-30T04:30:32;99618.53;;;18.77;100.00
75913;BME280;64592;52.168;21.040;2023-07-30T04:35:34;99617.50;;;18.78;99.66
75913;BME280;64592;52.168;21.040;2023-07-30T04:40:37;99612.69;;;18.80;98.65
75913;BME280;64592;52.168;21.040;2023-07-30T04:45:38;99635.00;;;18.83;98.32
75913;BME280;64592;52.168;21.040;2023-07-30T04:50:40;99640.28;;;18.85;98.44
75913;BME280;64592;52.168;21.040;2023-07-30T04:55:43;99645.75;;;18.85;97.12
75913;BME280;64592;52.168;21.040;2023-07-30T05:00:45;99639.25;;;18.86;96.91
75913;BME280;64592;52.168;21.040;2023-07-30T05:05:47;99647.63;;;18.84;97.21
75913;BME280;64592;52.168;21.040;2023-07-30T05:10:50;99651.22;;;18.85;96.20
75913;BME280;64592;52.168;21.040;2023-07-30T05:15:51;99660.34;;;18.92;95.76
75913;BME280;64592;52.168;21.040;2023-07-30T05:20:53;99669.03;;;18.95;95.31
75913;BME280;64592;52.168;21.040;2023-07-30T05:25:56;99672.63;;;18.96;95.60
75913;BME280;64592;52.168;21.040;2023-07-30T05:30:58;99669.31;;;19.00;95.67
75913;BME280;64592;52.168;21.040;2023-07-30T05:35:59;99679.69;;;19.05;95.19
75913;BME280;64592;52.168;21.040;2023-07-30T05:41:02;99694.59;;;19.03;94.12
75913;BME280;64592;52.168;21.040;2023-07-30T05:46:04;99693.34;;;19.05;93.45
75913;BME280;64592;52.168;21.040;2023-07-30T05:51:05;99703.72;;;19.10;93.10
75913;BME280;64592;52.168;21.040;2023-07-30T05:56:08;99696.06;;;19.05;92.21
75913;BME280;64592;52.168;21.040;2023-07-30T06:01:11;99710.59;;;19.06;91.11
75913;BME280;64592;52.168;21.040;2023-07-30T06:06:12;99710.06;;;19.10;88.68
75913;BME280;64592;52.168;21.040;2023-07-30T06:11:15;99709.66;;;19.13;88.39
75913;BME280;64592;52.168;21.040;2023-07-30T06:16:18;99712.59;;;19.12;87.00
75913;BME280;64592;52.168;21.040;2023-07-30T06:21:20;99715.13;;;19.13;86.04
75913;BME280;64592;52.168;21.040;2023-07-30T06:26:23;99716.16;;;19.12;85.13
75913;BME280;64592;52.168;21.040;2023-07-30T06:31:25;99722.22;;;19.22;85.29
75913;BME280;64592;52.168;21.040;2023-07-30T06:36:26;99717.78;;;19.36;86.01
75913;BME280;64592;52.168;21.040;2023-07-30T06:41:29;99723.28;;;19.51;84.16
75913;BME280;64592;52.168;21.040;2023-07-30T06:46:31;99720.19;;;19.54;83.17
75913;BME280;64592;52.168;21.040;2023-07-30T06:51:33;99720.38;;;19.52;82.36
75913;BME280;64592;52.168;21.040;2023-07-30T06:56:36;99728.66;;;19.59;82.13
75913;BME280;64592;52.168;21.040;2023-07-30T07:01:37;99733.59;;;19.63;81.30
75913;BME280;64592;52.168;21.040;2023-07-30T07:06:39;99728.31;;;19.62;81.51
75913;BME280;64592;52.168;21.040;2023-07-30T07:11:42;99725.47;;;19.70;81.34
75913;BME280;64592;52.168;21.040;2023-07-30T07:16:44;99728.47;;;19.75;80.06
75913;BME280;64592;52.168;21.040;2023-07-30T07:21:45;99737.44;;;19.84;80.65
75913;BME280;64592;52.168;21.040;2023-07-30T07:26:48;99732.91;;;19.91;80.35
75913;BME280;64592;52.168;21.040;2023-07-30T07:31:50;99747.50;;;19.98;80.36
75913;BME280;64592;52.168;21.040;2023-07-30T07:36:52;99745.22;;;20.01;78.87
75913;BME280;64592;52.168;21.040;2023-07-30T07:41:56;99734.38;;;20.08;79.18
75913;BME280;64592;52.168;21.040;2023-07-30T07:46:58;99744.84;;;20.04;77.47
75913;BME280;64592;52.168;21.040;2023-07-30T07:51:59;99731.44;;;20.09;77.33
75913;BME280;64592;52.168;21.040;2023-07-30T07:57:03;99743.50;;;20.15;77.96
75913;BME280;64592;52.168;21.040;2023-07-30T08:02:05;99743.28;;;20.16;75.18
75913;BME280;64592;52.168;21.040;2023-07-30T08:07:07;99744.81;;;20.19;77.00
75913;BME280;64592;52.168;21.040;2023-07-30T08:12:10;99753.09;;;20.26;76.52
75913;BME280;64592;52.168;21.040;2023-07-30T08:17:12;99754.81;;;20.27;75.51
75913;BME280;64592;52.168;21.040;2023-07-30T08:22:14;99750.84;;;20.29;76.03
75913;BME280;64592;52.168;21.040;2023-07-30T08:27:17;99747.16;;;20.37;76.02
75913;BME280;64592;52.168;21.040;2023-07-30T08:32:19;99752.13;;;20.48;74.84
75913;BME280;64592;52.168;21.040;2023-07-30T08:37:20;99750.56;;;20.60;76.22
75913;BME280;64592;52.168;21.040;2023-07-30T08:42:24;99758.25;;;20.71;75.97
75913;BME280;64592;52.168;21.040;2023-07-30T08:47:25;99761.31;;;20.83;73.96
75913;BME280;64592;52.168;21.040;2023-07-30T08:52:29;99760.63;;;20.96;75.42
75913;BME280;64592;52.168;21.040;2023-07-30T08:57:33;99759.41;;;21.05;72.94
75913;BME280;64592;52.168;21.040;2023-07-30T09:02:38;99755.63;;;21.06;74.42
75913;BME280;64592;52.168;21.040;2023-07-30T09:07:41;99771.44;;;21.04;72.02
75913;BME280;64592;52.168;21.040;2023-07-30T09:12:44;99774.84;;;21.12;73.61
75913;BME280;64592;52.168;21.040;2023-07-30T09:17:46;99767.00;;;21.24;71.97
75913;BME280;64592;52.168;21.040;2023-07-30T09:22:47;99777.88;;;21.39;72.54
75913;BME280;64592;52.168;21.040;2023-07-30T09:27:51;99775.53;;;21.63;72.05
75913;BME280;64592;52.168;21.040;2023-07-30T09:32:55;99795.00;;;21.75;70.80
75913;BME280;64592;52.168;21.040;2023-07-30T09:38:01;99783.63;;;21.78;70.10
75913;BME280;64592;52.168;21.040;2023-07-30T09:43:05;99791.94;;;21.91;70.03
75913;BME280;64592;52.168;21.040;2023-07-30T09:48:07;99790.13;;;22.05;68.01
75913;BME280;64592;52.168;21.040;2023-07-30T09:53:09;99778.97;;;22.13;68.91
75913;BME280;64592;52.168;21.040;2023-07-30T09:58:12;99786.22;;;22.27;66.46
75913;BME280;64592;52.168;21.040;2023-07-30T10:03:15;99773.84;;;22.51;67.66
75913;BME280;64592;52.168;21.040;2023-07-30T10:08:21;99781.47;;;22.69;68.84
75913;BME280;64592;52.168;21.040;2023-07-30T10:13:26;99758.28;;;22.91;71.60
75913;BME280;64592;52.168;21.040;2023-07-30T10:18:33;99758.94;;;23.06;69.65
75913;BME280;64592;52.168;21.040;2023-07-30T10:23:35;99758.72;;;23.41;73.82
75913;BME280;64592;52.168;21.040;2023-07-30T10:28:39;99744.75;;;23.55;67.17
75913;BME280;64592;52.168;21.040;2023-07-30T10:33:46;99750.25;;;23.62;72.09
75913;BME280;64592;52.168;21.040;2023-07-30T10:38:47;99753.84;;;23.63;65.90
75913;BME280;64592;52.168;21.040;2023-07-30T10:43:51;99749.81;;;23.58;64.78
75913;BME280;64592;52.168;21.040;2023-07-30T10:48:55;99747.69;;;23.67;65.69
75913;BME280;64592;52.168;21.040;2023-07-30T10:53:56;99748.53;;;23.68;66.99
75913;BME280;64592;52.168;21.040;2023-07-30T10:58:59;99745.16;;;23.59;64.24
75913;BME280;64592;52.168;21.040;2023-07-30T11:04:05;99739.03;;;23.57;64.29
75913;BME280;64592;52.168;21.040;2023-07-30T11:09:18;99740.47;;;23.73;63.12
75913;BME280;64592;52.168;21.040;2023-07-30T11:14:23;99736.13;;;24.03;61.61
75913;BME280;64592;52.168;21.040;2023-07-30T11:19:27;99729.22;;;24.38;59.72
75913;BME280;64592;52.168;21.040;2023-07-30T11:24:35;99731.13;;;24.69;57.75
75913;BME280;64592;52.168;21.040;2023-07-30T11:29:38;99721.91;;;24.89;57.80
75913;BME280;64592;52.168;21.040;2023-07-30T11:34:39;99719.84;;;25.09;58.23
75913;BME280;64592;52.168;21.040;2023-07-30T11:39:41;99715.38;;;25.33;56.48
75913;BME280;64592;52.168;21.040;2023-07-30T11:44:44;99715.91;;;25.66;57.09
75913;BME280;64592;52.168;21.040;2023-07-30T11:49:54;99723.19;;;25.79;54.34
75913;BME280;64592;52.168;21.040;2023-07-30T11:55:00;99714.38;;;25.88;53.00
75913;BME280;64592;52.168;21.040;2023-07-30T12:00:06;99717.06;;;25.95;52.94
75913;BME280;64592;52.168;21.040;2023-07-30T12:05:10;99718.44;;;25.68;52.32
75913;BME280;64592;52.168;21.040;2023-07-30T12:10:13;99717.00;;;25.40;53.39
75913;BME280;64592;52.168;21.040;2023-07-30T12:15:16;99720.28;;;25.31;54.76
75913;BME280;64592;52.168;21.040;2023-07-30T12:20:18;99728.69;;;25.18;54.85
75913;BME280;64592;52.168;21.040;2023-07-30T12:25:20;99726.22;;;25.09;55.32
75913;BME280;64592;52.168;21.040;2023-07-30T12:30:23;99726.13;;;24.91;55.08
75913;BME280;64592;52.168;21.040;2023-07-30T12:35:26;99720.84;;;24.83;56.61
75913;BME280;64592;52.168;21.040;2023-07-30T12:40:28;99716.81;;;24.86;57.45
75913;BME280;64592;52.168;21.040;2023-07-30T12:45:35;99715.31;;;24.90;57.35
75913;BME280;64592;52.168;21.040;2023-07-30T12:50:38;99715.44;;;25.01;57.76
75913;BME280;64592;52.168;21.040;2023-07-30T12:55:39;99708.41;;;25.30;57.49
75913;BME280;64592;52.168;21.040;2023-07-30T13:00:42;99714.91;;;25.61;54.90
75913;BME280;64592;52.168;21.040;2023-07-30T13:05:44;99707.09;;;25.76;54.95
75913;BME280;64592;52.168;21.040;2023-07-30T13:10:45;99701.09;;;25.97;55.40
75913;BME280;64592;52.168;21.040;2023-07-30T13:15:48;99706.00;;;26.13;56.12
75913;BME280;64592;52.168;21.040;2023-07-30T13:20:50;99701.84;;;26.22;53.72
75913;BME280;64592;52.168;21.040;2023-07-30T13:25:52;99699.66;;;26.43;54.04
75913;BME280;64592;52.168;21.040;2023-07-30T13:30:55;99692.53;;;26.65;52.43
75913;BME280;64592;52.168;21.040;2023-07-30T13:35:57;99698.88;;;26.95;52.11
75913;BME280;64592;52.168;21.040;2023-07-30T13:40:59;99698.03;;;26.95;50.09
75913;BME280;64592;52.168;21.040;2023-07-30T13:46:02;99696.59;;;27.04;49.14
75913;BME280;64592;52.168;21.040;2023-07-30T13:51:03;99700.69;;;26.90;49.18
75913;BME280;64592;52.168;21.040;2023-07-30T13:56:05;99688.28;;;26.92;49.60
75913;BME280;64592;52.168;21.040;2023-07-30T14:01:08;99683.06;;;26.84;49.84
75913;BME280;64592;52.168;21.040;2023-07-30T14:06:10;99686.78;;;26.78;49.51
75913;BME280;64592;52.168;21.040;2023-07-30T14:11:12;99688.06;;;26.64;49.68
75913;BME280;64592;52.168;21.040;2023-07-30T14:16:15;99692.44;;;26.23;49.93
75913;BME280;64592;52.168;21.040;2023-07-30T14:21:17;99693.50;;;25.93;50.17
75913;BME280;64592;52.168;21.040;2023-07-30T14:26:18;99691.06;;;25.84;51.30
75913;BME280;64592;52.168;21.040;2023-07-30T14:31:22;99681.34;;;26.12;51.05
75913;BME280;64592;52.168;21.040;2023-07-30T14:36:23;99683.50;;;26.70;48.63
75913;BME280;64592;52.168;21.040;2023-07-30T14:41:25;99688.28;;;27.27;47.89
75913;BME280;64592;52.168;21.040;2023-07-30T14:46:28;99673.25;;;27.58;46.96
75913;BME280;64592;52.168;21.040;2023-07-30T14:51:30;99682.88;;;27.67;44.37
75913;BME280;64592;52.168;21.040;2023-07-30T14:56:31;99674.75;;;28.01;45.69
75913;BME280;64592;52.168;21.040;2023-07-30T15:01:35;99672.47;;;28.38;43.60
75913;BME280;64592;52.168;21.040;2023-07-30T15:06:36;99670.97;;;27.78;43.50
75913;BME280;64592;52.168;21.040;2023-07-30T15:11:38;99658.97;;;27.90;43.92
75913;BME280;64592;52.168;21.040;2023-07-30T15:16:41;99660.41;;;28.32;44.38
75913;BME280;64592;52.168;21.040;2023-07-30T15:21:43;99659.19;;;28.00;44.26
75913;BME280;64592;52.168;21.040;2023-07-30T15:26:44;99651.09;;;27.58;45.49
75913;BME280;64592;52.168;21.040;2023-07-30T15:31:48;99647.97;;;27.08;46.37
75913;BME280;64592;52.168;21.040;2023-07-30T15:36:50;99648.03;;;26.66;47.61
75913;BME280;64592;52.168;21.040;2023-07-30T15:41:52;99645.16;;;26.32;48.66
75913;BME280;64592;52.168;21.040;2023-07-30T15:46:55;99640.19;;;26.52;48.02
75913;BME280;64592;52.168;21.040;2023-07-30T15:51:57;99639.06;;;27.29;47.81
75913;BME280;64592;52.168;21.040;2023-07-30T15:56:59;99649.41;;;27.57;46.56
75913;BME280;64592;52.168;21.040;2023-07-30T16:02:02;99648.56;;;27.45;47.34
75913;BME280;64592;52.168;21.040;2023-07-30T16:07:04;99652.06;;;27.05;48.20
75913;BME280;64592;52.168;21.040;2023-07-30T16:12:06;99639.19;;;26.46;49.65
75913;BME280;64592;52.168;21.040;2023-07-30T16:17:10;99637.03;;;26.18;50.80
75913;BME280;64592;52.168;21.040;2023-07-30T16:22:11;99633.41;;;25.88;51.27
75913;BME280;64592;52.168;21.040;2023-07-30T16:27:13;99632.38;;;25.71;51.97
75913;BME280;64592;52.168;21.040;2023-07-30T16:32:18;99641.25;;;25.55;52.10
75913;BME280;64592;52.168;21.040;2023-07-30T16:37:20;99639.25;;;25.43;53.05
75913;BME280;64592;52.168;21.040;2023-07-30T16:42:22;99649.69;;;25.41;53.93
75913;BME280;64592;52.168;21.040;2023-07-30T16:47:25;99649.59;;;25.30;53.42
75913;BME280;64592;52.168;21.040;2023-07-30T16:52:26;99669.38;;;25.27;54.15
75913;BME280;64592;52.168;21.040;2023-07-30T16:57:28;99665.78;;;25.26;54.35
75913;BME280;64592;52.168;21.040;2023-07-30T17:02:34;99665.00;;;25.19;54.10
75913;BME280;64592;52.168;21.040;2023-07-30T17:07:35;99682.06;;;25.09;53.54
75913;BME280;64592;52.168;21.040;2023-07-30T17:12:38;99686.81;;;25.02;54.11
75913;BME280;64592;52.168;21.040;2023-07-30T17:17:41;99691.53;;;24.95;54.45
75913;BME280;64592;52.168;21.040;2023-07-30T17:22:43;99690.31;;;24.85;54.96
75913;BME280;64592;52.168;21.040;2023-07-30T17:27:44;99695.03;;;24.77;55.45
75913;BME280;64592;52.168;21.040;2023-07-30T17:32:48;99686.66;;;24.66;56.00
75913;BME280;64592;52.168;21.040;2023-07-30T17:37:49;99684.00;;;24.53;56.94
75913;BME280;64592;52.168;21.040;2023-07-30T17:42:51;99687.84;;;24.45;56.96
75913;BME280;64592;52.168;21.040;2023-07-30T17:47:54;99684.50;;;24.36;57.50
75913;BME280;64592;52.168;21.040;2023-07-30T17:52:56;99691.34;;;24.27;58.31
75913;BME280;64592;52.168;21.040;2023-07-30T17:57:58;99697.75;;;24.21;58.59
75913;BME280;64592;52.168;21.040;2023-07-30T18:03:01;99696.06;;;24.14;59.90
75913;BME280;64592;52.168;21.040;2023-07-30T18:08:03;99696.31;;;24.06;60.18
75913;BME280;64592;52.168;21.040;2023-07-30T18:13:05;99698.25;;;23.98;60.27
75913;BME280;64592;52.168;21.040;2023-07-30T18:18:08;99685.94;;;23.94;60.85
75913;BME280;64592;52.168;21.040;2023-07-30T18:23:10;99689.59;;;23.88;61.70
75913;BME280;64592;52.168;21.040;2023-07-30T18:28:11;99700.41;;;23.83;61.56
75913;BME280;64592;52.168;21.040;2023-07-30T18:33:15;99686.47;;;23.78;61.61
75913;BME280;64592;52.168;21.040;2023-07-30T18:38:16;99691.97;;;23.72;61.99
75913;BME280;64592;52.168;21.040;2023-07-30T18:43:18;99692.63;;;23.67;61.91
75913;BME280;64592;52.168;21.040;2023-07-30T18:48:21;99693.50;;;23.61;61.96
75913;BME280;64592;52.168;21.040;2023-07-30T18:53:23;99712.34;;;23.57;62.12
75913;BME280;64592;52.168;21.040;2023-07-30T18:58:25;99724.84;;;23.53;62.37
75913;BME280;64592;52.168;21.040;2023-07-30T19:03:28;99714.25;;;23.50;62.59
75913;BME280;64592;52.168;21.040;2023-07-30T19:08:29;99713.41;;;23.50;62.72
75913;BME280;64592;52.168;21.040;2023-07-30T19:13:31;99715.94;;;23.45;63.10
75913;BME280;64592;52.168;21.040;2023-07-30T19:18:35;99704.13;;;23.38;63.07
75913;BME280;64592;52.168;21.040;2023-07-30T19:23:36;99712.38;;;23.31;63.04
75913;BME280;64592;52.168;21.040;2023-07-30T19:28:38;99715.13;;;23.25;63.38
75913;BME280;64592;52.168;21.040;2023-07-30T19:33:41;99713.88;;;23.14;63.49
75913;BME280;64592;52.168;21.040;2023-07-30T19:38:43;99715.78;;;23.07;63.58
75913;BME280;64592;52.168;21.040;2023-07-30T19:43:46;99712.63;;;23.03;63.95
75913;BME280;64592;52.168;21.040;2023-07-30T19:48:49;99726.56;;;22.95;63.70
75913;BME280;64592;52.168;21.040;2023-07-30T19:53:51;99727.00;;;22.92;63.76
75913;BME280;64592;52.168;21.040;2023-07-30T19:58:52;99723.19;;;22.87;63.91
75913;BME280;64592;52.168;21.040;2023-07-30T20:03:55;99728.69;;;22.80;64.04
75913;BME280;64592;52.168;21.040;2023-07-30T20:08:57;99725.69;;;22.75;64.72
75913;BME280;64592;52.168;21.040;2023-07-30T20:13:59;99735.00;;;22.67;64.78
75913;BME280;64592;52.168;21.040;2023-07-30T20:19:02;99738.78;;;22.60;65.40
75913;BME280;64592;52.168;21.040;2023-07-30T20:24:04;99735.16;;;22.53;65.51
75913;BME280;64592;52.168;21.040;2023-07-30T20:29:06;99739.78;;;22.45;65.82
75913;BME280;64592;52.168;21.040;2023-07-30T20:34:09;99738.28;;;22.36;66.04
75913;BME280;64592;52.168;21.040;2023-07-30T20:39:11;99732.34;;;22.26;66.70
75913;BME280;64592;52.168;21.040;2023-07-30T20:44:13;99730.00;;;22.23;67.28
75913;BME280;64592;52.168;21.040;2023-07-30T20:49:16;99731.25;;;22.14;67.74
75913;BME280;64592;52.168;21.040;2023-07-30T20:54:17;99735.22;;;22.05;68.10
75913;BME280;64592;52.168;21.040;2023-07-30T20:59:19;99728.44;;;22.01;68.24
75913;BME280;64592;52.168;21.040;2023-07-30T21:04:22;99757.53;;;21.95;68.63
75913;BME280;64592;52.168;21.040;2023-07-30T21:09:25;99751.19;;;21.95;68.86
75913;BME280;64592;52.168;21.040;2023-07-30T21:14:26;99747.38;;;21.89;68.72
75913;BME280;64592;52.168;21.040;2023-07-30T21:19:29;99753.22;;;21.80;69.41
75913;BME280;64592;52.168;21.040;2023-07-30T21:24:31;99749.84;;;21.78;69.72
75913;BME280;64592;52.168;21.040;2023-07-30T21:29:33;99759.88;;;21.64;70.25
75913;BME280;64592;52.168;21.040;2023-07-30T21:34:36;99755.16;;;21.51;70.66
75913;BME280;64592;52.168;21.040;2023-07-30T21:39:37;99744.53;;;21.42;70.64
75913;BME280;64592;52.168;21.040;2023-07-30T21:44:40;99743.06;;;21.39;70.26
75913;BME280;64592;52.168;21.040;2023-07-30T21:49:43;99743.88;;;21.33;70.85
75913;BME280;64592;52.168;21.040;2023-07-30T21:54:45;99736.22;;;21.28;71.03
75913;BME280;64592;52.168;21.040;2023-07-30T21:59:49;99735.13;;;21.23;71.21
75913;BME280;64592;52.168;21.040;2023-07-30T22:04:52;99728.81;;;21.22;71.20
75913;BME280;64592;52.168;21.040;2023-07-30T22:09:54;99730.03;;;21.20;71.31
75913;BME280;64592;52.168;21.040;2023-07-30T22:14:56;99736.78;;;21.17;71.34
75913;BME280;64592;52.168;21.040;2023-07-30T22:19:59;99727.16;;;21.07;71.91
75913;BME280;64592;52.168;21.040;2023-07-30T22:25:01;99722.72;;;21.06;71.92
75913;BME280;64592;52.168;21.040;2023-07-30T22:30:03;99733.22;;;20.96;72.26
75913;BME280;64592;52.168;21.040;2023-07-30T22:35:09;99721.97;;;20.90;72.38
75913;BME280;64592;52.168;21.040;2023-07-30T22:40:11;99723.81;;;20.83;72.81
75913;BME280;64592;52.168;21.040;2023-07-30T22:45:12;99731.13;;;20.76;73.00
75913;BME280;64592;52.168;21.040;2023-07-30T22:50:16;99727.09;;;20.72;73.13
75913;BME280;64592;52.168;21.040;2023-07-30T22:55:18;99733.75;;;20.63;73.79
75913;BME280;64592;52.168;21.040;2023-07-30T23:00:19;99734.97;;;20.61;73.91
75913;BME280;64592;52.168;21.040;2023-07-30T23:05:22;99733.31;;;20.60;73.75
75913;BME280;64592;52.168;21.040;2023-07-30T23:10:24;99739.09;;;20.50;73.91
75913;BME280;64592;52.168;21.040;2023-07-30T23:15:26;99732.94;;;20.48;73.83
75913;BME280;64592;52.168;21.040;2023-07-30T23:20:29;99742.38;;;20.45;73.48
75913;BME280;64592;52.168;21.040;2023-07-30T23:25:32;99736.00;;;20.38;73.66
75913;BME280;64592;52.168;21.040;2023-07-30T23:30:37;99739.31;;;20.34;73.88
75913;BME280;64592;52.168;21.040;2023-07-30T23:35:40;99740.06;;;20.28;73.72
75913;BME280;64592;52.168;21.040;2023-07-30T23:40:42;99742.75;;;20.21;74.01
75913;BME280;64592;52.168;21.040;2023-07-30T23:45:44;99734.22;;;20.16;73.90
75913;BME280;64592;52.168;21.040;2023-07-30T23:50:47;99736.97;;;20.16;73.82
75913;BME280;64592;52.168;21.040;2023-07-30T23:55:49;99734.47;;;20.14;73.46
